sensor_id;sensor_type;location;lat;lon;timestamp;pressure;altitude;pressure_sealevel;temperature
15626;BMP180;7912;51.376;6.126;2023-03-04T00:00:40;102272.00;;;9.60
15626;BMP180;7912;51.376;6.126;2023-03-04T00:03:14;102280.00;;;9.60
15626;BMP180;7912;51.376;6.126;2023-03-04T00:05:42;102285.00;;;9.70
15626;BMP180;7912;51.376;6.126;2023-03-04T00:08:09;102287.00;;;9.70
15626;BMP180;7912;51.376;6.126;2023-03-04T00:10:36;102273.00;;;9.70
15626;BMP180;7912;51.376;6.126;2023-03-04T00:13:04;102277.00;;;9.70
15626;BMP180;7912;51.376;6.126;2023-03-04T00:15:31;102282.00;;;9.70
15626;BMP180;7912;51.376;6.126;2023-03-04T00:17:58;102285.00;;;9.80
15626;BMP180;7912;51.376;6.126;2023-03-04T00:20:26;102279.00;;;9.80
15626;BMP180;7912;51.376;6.126;2023-03-04T00:22:53;102271.00;;;9.80
15626;BMP180;7912;51.376;6.126;2023-03-04T00:25:20;102267.00;;;9.80
15626;BMP180;7912;51.376;6.126;2023-03-04T00:27:48;102268.00;;;9.70
15626;BMP180;7912;51.376;6.126;2023-03-04T00:30:15;102268.00;;;9.80
15626;BMP180;7912;51.376;6.126;2023-03-04T00:32:43;102271.00;;;9.80
15626;BMP180;7912;51.376;6.126;2023-03-04T00:35:10;102253.00;;;9.80
15626;BMP180;7912;51.376;6.126;2023-03-04T00:37:37;102257.00;;;9.80
15626;BMP180;7912;51.376;6.126;2023-03-04T00:40:06;102264.00;;;9.80
15626;BMP180;7912;51.376;6.126;2023-03-04T00:42:33;102263.00;;;9.80
15626;BMP180;7912;51.376;6.126;2023-03-04T00:45:01;102260.00;;;9.80
15626;BMP180;7912;51.376;6.126;2023-03-04T00:47:28;102269.00;;;9.80
15626;BMP180;7912;51.376;6.126;2023-03-04T00:49:56;102257.00;;;9.80
15626;BMP180;7912;51.376;6.126;2023-03-04T00:52:23;102263.00;;;9.80
15626;BMP180;7912;51.376;6.126;2023-03-04T00:54:50;102264.00;;;9.80
15626;BMP180;7912;51.376;6.126;2023-03-04T00:57:18;102256.00;;;9.80
15626;BMP180;7912;51.376;6.126;2023-03-04T00:59:45;102253.00;;;9.80
15626;BMP180;7912;51.376;6.126;2023-03-04T01:02:12;102271.00;;;9.80
15626;BMP180;7912;51.376;6.126;2023-03-04T01:04:40;102264.00;;;9.80
15626;BMP180;7912;51.376;6.126;2023-03-04T01:07:08;102266.00;;;9.80
15626;BMP180;7912;51.376;6.126;2023-03-04T01:09:35;102266.00;;;9.80
15626;BMP180;7912;51.376;6.126;2023-03-04T01:12:03;102252.00;;;9.80
15626;BMP180;7912;51.376;6.126;2023-03-04T01:14:30;102264.00;;;9.80
15626;BMP180;7912;51.376;6.126;2023-03-04T01:16:58;102261.00;;;9.80
15626;BMP180;7912;51.376;6.126;2023-03-04T01:19:26;102257.00;;;9.80
15626;BMP180;7912;51.376;6.126;2023-03-04T01:21:53;102260.00;;;9.80
15626;BMP180;7912;51.376;6.126;2023-03-04T01:24:21;102247.00;;;9.80
15626;BMP180;7912;51.376;6.126;2023-03-04T01:26:49;102256.00;;;9.80
15626;BMP180;7912;51.376;6.126;2023-03-04T01:29:18;102249.00;;;9.70
15626;BMP180;7912;51.376;6.126;2023-03-04T01:31:46;102244.00;;;9.70
15626;BMP180;7912;51.376;6.126;2023-03-04T01:34:14;102252.00;;;9.70
15626;BMP180;7912;51.376;6.126;2023-03-04T01:36:41;102236.00;;;9.70
15626;BMP180;7912;51.376;6.126;2023-03-04T01:39:09;102245.00;;;9.70
15626;BMP180;7912;51.376;6.126;2023-03-04T01:41:36;102250.00;;;9.70
15626;BMP180;7912;51.376;6.126;2023-03-04T01:44:04;102244.00;;;9.70
15626;BMP180;7912;51.376;6.126;2023-03-04T01:46:32;102232.00;;;9.70
15626;BMP180;7912;51.376;6.126;2023-03-04T01:49:00;102248.00;;;9.70
15626;BMP180;7912;51.376;6.126;2023-03-04T01:51:27;102254.00;;;9.70
15626;BMP180;7912;51.376;6.126;2023-03-04T01:53:55;102243.00;;;9.60
15626;BMP180;7912;51.376;6.126;2023-03-04T01:56:35;102237.00;;;9.60
15626;BMP180;7912;51.376;6.126;2023-03-04T01:59:17;102239.00;;;9.50
15626;BMP180;7912;51.376;6.126;2023-03-04T02:01:57;102239.00;;;9.50
15626;BMP180;7912;51.376;6.126;2023-03-04T02:04:31;102230.00;;;9.50
15626;BMP180;7912;51.376;6.126;2023-03-04T02:07:02;102218.00;;;9.50
15626;BMP180;7912;51.376;6.126;2023-03-04T02:09:30;102229.00;;;9.50
15626;BMP180;7912;51.376;6.126;2023-03-04T02:11:59;102219.00;;;9.60
15626;BMP180;7912;51.376;6.126;2023-03-04T02:14:27;102222.00;;;9.50
15626;BMP180;7912;51.376;6.126;2023-03-04T02:16:55;102231.00;;;9.50
15626;BMP180;7912;51.376;6.126;2023-03-04T02:19:41;102229.00;;;9.60
15626;BMP180;7912;51.376;6.126;2023-03-04T02:22:14;102224.00;;;9.60
15626;BMP180;7912;51.376;6.126;2023-03-04T02:24:59;102232.00;;;9.60
15626;BMP180;7912;51.376;6.126;2023-03-04T02:27:29;102228.00;;;9.60
15626;BMP180;7912;51.376;6.126;2023-03-04T02:29:56;102220.00;;;9.50
15626;BMP180;7912;51.376;6.126;2023-03-04T02:32:23;102219.00;;;9.50
15626;BMP180;7912;51.376;6.126;2023-03-04T02:34:51;102208.00;;;9.50
15626;BMP180;7912;51.376;6.126;2023-03-04T02:37:19;102215.00;;;9.50
15626;BMP180;7912;51.376;6.126;2023-03-04T02:39:48;102204.00;;;9.50
15626;BMP180;7912;51.376;6.126;2023-03-04T02:42:16;102211.00;;;9.50
15626;BMP180;7912;51.376;6.126;2023-03-04T02:44:45;102214.00;;;9.50
15626;BMP180;7912;51.376;6.126;2023-03-04T02:47:18;102195.00;;;9.40
15626;BMP180;7912;51.376;6.126;2023-03-04T02:49:45;102198.00;;;9.40
15626;BMP180;7912;51.376;6.126;2023-03-04T02:52:19;102206.00;;;9.40
15626;BMP180;7912;51.376;6.126;2023-03-04T02:54:47;102202.00;;;9.40
15626;BMP180;7912;51.376;6.126;2023-03-04T02:57:15;102187.00;;;9.40
15626;BMP180;7912;51.376;6.126;2023-03-04T02:59:42;102203.00;;;9.40
15626;BMP180;7912;51.376;6.126;2023-03-04T03:02:10;102205.00;;;9.40
15626;BMP180;7912;51.376;6.126;2023-03-04T03:04:39;102203.00;;;9.40
15626;BMP180;7912;51.376;6.126;2023-03-04T03:07:07;102191.00;;;9.40
15626;BMP180;7912;51.376;6.126;2023-03-04T03:09:35;102194.00;;;9.40
15626;BMP180;7912;51.376;6.126;2023-03-04T03:12:04;102191.00;;;9.40
15626;BMP180;7912;51.376;6.126;2023-03-04T03:14:32;102198.00;;;9.40
15626;BMP180;7912;51.376;6.126;2023-03-04T03:17:00;102189.00;;;9.40
15626;BMP180;7912;51.376;6.126;2023-03-04T03:19:27;102186.00;;;9.40
15626;BMP180;7912;51.376;6.126;2023-03-04T03:21:54;102195.00;;;9.40
15626;BMP180;7912;51.376;6.126;2023-03-04T03:24:22;102188.00;;;9.40
15626;BMP180;7912;51.376;6.126;2023-03-04T03:26:49;102183.00;;;9.40
15626;BMP180;7912;51.376;6.126;2023-03-04T03:29:17;102186.00;;;9.40
15626;BMP180;7912;51.376;6.126;2023-03-04T03:31:44;102191.00;;;9.40
15626;BMP180;7912;51.376;6.126;2023-03-04T03:34:11;102182.00;;;9.50
15626;BMP180;7912;51.376;6.126;2023-03-04T03:36:38;102183.00;;;9.50
15626;BMP180;7912;51.376;6.126;2023-03-04T03:39:06;102178.00;;;9.60
15626;BMP180;7912;51.376;6.126;2023-03-04T03:41:33;102181.00;;;9.60
15626;BMP180;7912;51.376;6.126;2023-03-04T03:44:00;102175.00;;;9.50
15626;BMP180;7912;51.376;6.126;2023-03-04T03:46:28;102171.00;;;9.50
15626;BMP180;7912;51.376;6.126;2023-03-04T03:48:55;102172.00;;;9.60
15626;BMP180;7912;51.376;6.126;2023-03-04T03:51:23;102172.00;;;9.50
15626;BMP180;7912;51.376;6.126;2023-03-04T03:53:50;102173.00;;;9.60
15626;BMP180;7912;51.376;6.126;2023-03-04T03:56:17;102168.00;;;9.50
15626;BMP180;7912;51.376;6.126;2023-03-04T03:58:45;102172.00;;;9.50
15626;BMP180;7912;51.376;6.126;2023-03-04T04:01:12;102164.00;;;9.50
15626;BMP180;7912;51.376;6.126;2023-03-04T04:03:39;102171.00;;;9.50
15626;BMP180;7912;51.376;6.126;2023-03-04T04:06:07;102167.00;;;9.40
15626;BMP180;7912;51.376;6.126;2023-03-04T04:08:34;102164.00;;;9.40
15626;BMP180;7912;51.376;6.126;2023-03-04T04:11:04;102163.00;;;9.50
15626;BMP180;7912;51.376;6.126;2023-03-04T04:13:31;102163.00;;;9.50
15626;BMP180;7912;51.376;6.126;2023-03-04T04:15:58;102154.00;;;9.50
15626;BMP180;7912;51.376;6.126;2023-03-04T04:18:26;102169.00;;;9.40
15626;BMP180;7912;51.376;6.126;2023-03-04T04:20:53;102164.00;;;9.40
15626;BMP180;7912;51.376;6.126;2023-03-04T04:23:21;102170.00;;;9.40
15626;BMP180;7912;51.376;6.126;2023-03-04T04:25:49;102173.00;;;9.40
15626;BMP180;7912;51.376;6.126;2023-03-04T04:28:16;102173.00;;;9.40
15626;BMP180;7912;51.376;6.126;2023-03-04T04:30:43;102176.00;;;9.40
15626;BMP180;7912;51.376;6.126;2023-03-04T04:33:11;102167.00;;;9.40
15626;BMP180;7912;51.376;6.126;2023-03-04T04:35:39;102170.00;;;9.40
15626;BMP180;7912;51.376;6.126;2023-03-04T04:38:07;102168.00;;;9.40
15626;BMP180;7912;51.376;6.126;2023-03-04T04:40:35;102164.00;;;9.50
15626;BMP180;7912;51.376;6.126;2023-03-04T04:43:02;102172.00;;;9.50
15626;BMP180;7912;51.376;6.126;2023-03-04T04:45:30;102179.00;;;9.50
15626;BMP180;7912;51.376;6.126;2023-03-04T04:47:57;102176.00;;;9.50
15626;BMP180;7912;51.376;6.126;2023-03-04T04:50:25;102172.00;;;9.50
15626;BMP180;7912;51.376;6.126;2023-03-04T04:52:52;102181.00;;;9.50
15626;BMP180;7912;51.376;6.126;2023-03-04T04:55:20;102170.00;;;9.50
15626;BMP180;7912;51.376;6.126;2023-03-04T04:57:47;102178.00;;;9.50
15626;BMP180;7912;51.376;6.126;2023-03-04T05:00:15;102180.00;;;9.50
15626;BMP180;7912;51.376;6.126;2023-03-04T05:02:45;102181.00;;;9.50
15626;BMP180;7912;51.376;6.126;2023-03-04T05:05:12;102172.00;;;9.40
15626;BMP180;7912;51.376;6.126;2023-03-04T05:07:39;102185.00;;;9.40
15626;BMP180;7912;51.376;6.126;2023-03-04T05:10:07;102172.00;;;9.50
15626;BMP180;7912;51.376;6.126;2023-03-04T05:12:35;102177.00;;;9.40
15626;BMP180;7912;51.376;6.126;2023-03-04T05:15:02;102165.00;;;9.40
15626;BMP180;7912;51.376;6.126;2023-03-04T05:17:30;102174.00;;;9.40
15626;BMP180;7912;51.376;6.126;2023-03-04T05:19:57;102179.00;;;9.40
15626;BMP180;7912;51.376;6.126;2023-03-04T05:22:25;102179.00;;;9.40
15626;BMP180;7912;51.376;6.126;2023-03-04T05:24:52;102183.00;;;9.40
15626;BMP180;7912;51.376;6.126;2023-03-04T05:27:19;102176.00;;;9.30
15626;BMP180;7912;51.376;6.126;2023-03-04T05:29:46;102180.00;;;9.40
15626;BMP180;7912;51.376;6.126;2023-03-04T05:32:14;102171.00;;;9.40
15626;BMP180;7912;51.376;6.126;2023-03-04T05:34:41;102169.00;;;9.40
15626;BMP180;7912;51.376;6.126;2023-03-04T05:37:08;102169.00;;;9.40
15626;BMP180;7912;51.376;6.126;2023-03-04T05:39:35;102177.00;;;9.50
15626;BMP180;7912;51.376;6.126;2023-03-04T05:42:03;102177.00;;;9.50
15626;BMP180;7912;51.376;6.126;2023-03-04T05:44:30;102177.00;;;9.50
15626;BMP180;7912;51.376;6.126;2023-03-04T05:46:57;102168.00;;;9.50
15626;BMP180;7912;51.376;6.126;2023-03-04T05:49:24;102188.00;;;9.50
15626;BMP180;7912;51.376;6.126;2023-03-04T05:51:52;102186.00;;;9.50
15626;BMP180;7912;51.376;6.126;2023-03-04T05:54:19;102178.00;;;9.50
15626;BMP180;7912;51.376;6.126;2023-03-04T05:56:47;102187.00;;;9.50
15626;BMP180;7912;51.376;6.126;2023-03-04T05:59:15;102168.00;;;9.50
15626;BMP180;7912;51.376;6.126;2023-03-04T06:01:47;102184.00;;;9.50
15626;BMP180;7912;51.376;6.126;2023-03-04T06:04:14;102180.00;;;9.60
15626;BMP180;7912;51.376;6.126;2023-03-04T06:06:42;102180.00;;;9.60
15626;BMP180;7912;51.376;6.126;2023-03-04T06:09:10;102184.00;;;9.70
15626;BMP180;7912;51.376;6.126;2023-03-04T06:11:37;102187.00;;;9.70
15626;BMP180;7912;51.376;6.126;2023-03-04T06:14:04;102181.00;;;9.70
15626;BMP180;7912;51.376;6.126;2023-03-04T06:16:32;102185.00;;;9.70
15626;BMP180;7912;51.376;6.126;2023-03-04T06:18:59;102173.00;;;9.60
15626;BMP180;7912;51.376;6.126;2023-03-04T06:21:26;102180.00;;;9.60
15626;BMP180;7912;51.376;6.126;2023-03-04T06:23:57;102191.00;;;9.60
15626;BMP180;7912;51.376;6.126;2023-03-04T06:26:24;102197.00;;;9.60
15626;BMP180;7912;51.376;6.126;2023-03-04T06:28:51;102191.00;;;9.60
15626;BMP180;7912;51.376;6.126;2023-03-04T06:31:22;102197.00;;;9.60
15626;BMP180;7912;51.376;6.126;2023-03-04T06:33:50;102196.00;;;9.60
15626;BMP180;7912;51.376;6.126;2023-03-04T06:36:18;102199.00;;;9.50
15626;BMP180;7912;51.376;6.126;2023-03-04T06:38:45;102210.00;;;9.50
15626;BMP180;7912;51.376;6.126;2023-03-04T06:41:13;102202.00;;;9.50
15626;BMP180;7912;51.376;6.126;2023-03-04T06:43:40;102208.00;;;9.50
15626;BMP180;7912;51.376;6.126;2023-03-04T06:46:08;102200.00;;;9.50
15626;BMP180;7912;51.376;6.126;2023-03-04T06:48:36;102212.00;;;9.50
15626;BMP180;7912;51.376;6.126;2023-03-04T06:51:06;102205.00;;;9.60
15626;BMP180;7912;51.376;6.126;2023-03-04T06:53:34;102206.00;;;9.60
15626;BMP180;7912;51.376;6.126;2023-03-04T06:56:01;102198.00;;;9.70
15626;BMP180;7912;51.376;6.126;2023-03-04T06:58:29;102199.00;;;9.70
15626;BMP180;7912;51.376;6.126;2023-03-04T07:00:56;102219.00;;;9.80
15626;BMP180;7912;51.376;6.126;2023-03-04T07:03:23;102214.00;;;9.80
15626;BMP180;7912;51.376;6.126;2023-03-04T07:05:51;102202.00;;;9.90
15626;BMP180;7912;51.376;6.126;2023-03-04T07:08:18;102210.00;;;9.90
15626;BMP180;7912;51.376;6.126;2023-03-04T07:10:48;102216.00;;;10.00
15626;BMP180;7912;51.376;6.126;2023-03-04T07:13:16;102217.00;;;10.00
15626;BMP180;7912;51.376;6.126;2023-03-04T07:15:43;102217.00;;;10.00
15626;BMP180;7912;51.376;6.126;2023-03-04T07:18:13;102214.00;;;10.10
15626;BMP180;7912;51.376;6.126;2023-03-04T07:20:40;102218.00;;;10.10
15626;BMP180;7912;51.376;6.126;2023-03-04T07:23:08;102227.00;;;10.10
15626;BMP180;7912;51.376;6.126;2023-03-04T07:25:35;102224.00;;;10.10
15626;BMP180;7912;51.376;6.126;2023-03-04T07:28:02;102231.00;;;10.00
15626;BMP180;7912;51.376;6.126;2023-03-04T07:30:29;102228.00;;;10.00
15626;BMP180;7912;51.376;6.126;2023-03-04T07:32:57;102231.00;;;10.00
15626;BMP180;7912;51.376;6.126;2023-03-04T07:35:24;102227.00;;;10.00
15626;BMP180;7912;51.376;6.126;2023-03-04T07:37:51;102240.00;;;10.00
15626;BMP180;7912;51.376;6.126;2023-03-04T07:40:20;102233.00;;;10.00
15626;BMP180;7912;51.376;6.126;2023-03-04T07:42:53;102229.00;;;10.00
15626;BMP180;7912;51.376;6.126;2023-03-04T07:45:22;102238.00;;;10.00
15626;BMP180;7912;51.376;6.126;2023-03-04T07:47:50;102234.00;;;10.00
15626;BMP180;7912;51.376;6.126;2023-03-04T07:50:18;102236.00;;;10.00
15626;BMP180;7912;51.376;6.126;2023-03-04T07:52:47;102240.00;;;10.00
15626;BMP180;7912;51.376;6.126;2023-03-04T07:55:17;102241.00;;;10.00
15626;BMP180;7912;51.376;6.126;2023-03-04T07:57:46;102244.00;;;10.10
15626;BMP180;7912;51.376;6.126;2023-03-04T08:00:15;102240.00;;;10.00
15626;BMP180;7912;51.376;6.126;2023-03-04T08:02:43;102238.00;;;10.00
15626;BMP180;7912;51.376;6.126;2023-03-04T08:05:13;102227.00;;;9.90
15626;BMP180;7912;51.376;6.126;2023-03-04T08:07:40;102241.00;;;10.00
15626;BMP180;7912;51.376;6.126;2023-03-04T08:10:08;102240.00;;;10.10
15626;BMP180;7912;51.376;6.126;2023-03-04T08:12:36;102251.00;;;10.20
15626;BMP180;7912;51.376;6.126;2023-03-04T08:15:04;102248.00;;;10.30
15626;BMP180;7912;51.376;6.126;2023-03-04T08:17:31;102249.00;;;10.40
15626;BMP180;7912;51.376;6.126;2023-03-04T08:19:58;102253.00;;;10.40
15626;BMP180;7912;51.376;6.126;2023-03-04T08:22:25;102254.00;;;10.40
15626;BMP180;7912;51.376;6.126;2023-03-04T08:24:53;102243.00;;;10.40
15626;BMP180;7912;51.376;6.126;2023-03-04T08:27:20;102246.00;;;10.40
15626;BMP180;7912;51.376;6.126;2023-03-04T08:29:47;102253.00;;;10.40
15626;BMP180;7912;51.376;6.126;2023-03-04T08:32:15;102255.00;;;10.40
15626;BMP180;7912;51.376;6.126;2023-03-04T08:34:42;102237.00;;;10.40
15626;BMP180;7912;51.376;6.126;2023-03-04T08:37:10;102248.00;;;10.50
15626;BMP180;7912;51.376;6.126;2023-03-04T08:39:37;102257.00;;;10.70
15626;BMP180;7912;51.376;6.126;2023-03-04T08:42:04;102248.00;;;10.90
15626;BMP180;7912;51.376;6.126;2023-03-04T08:44:32;102244.00;;;11.10
15626;BMP180;7912;51.376;6.126;2023-03-04T08:46:59;102246.00;;;11.30
15626;BMP180;7912;51.376;6.126;2023-03-04T08:49:26;102221.00;;;11.30
15626;BMP180;7912;51.376;6.126;2023-03-04T08:51:54;102241.00;;;11.40
15626;BMP180;7912;51.376;6.126;2023-03-04T08:54:21;102233.00;;;11.50
15626;BMP180;7912;51.376;6.126;2023-03-04T08:56:48;102237.00;;;11.40
15626;BMP180;7912;51.376;6.126;2023-03-04T08:59:15;102235.00;;;11.40
15626;BMP180;7912;51.376;6.126;2023-03-04T09:01:43;102229.00;;;11.30
15626;BMP180;7912;51.376;6.126;2023-03-04T09:04:11;102239.00;;;11.20
15626;BMP180;7912;51.376;6.126;2023-03-04T09:06:38;102230.00;;;11.20
15626;BMP180;7912;51.376;6.126;2023-03-04T09:09:06;102243.00;;;11.20
15626;BMP180;7912;51.376;6.126;2023-03-04T09:11:33;102240.00;;;11.30
15626;BMP180;7912;51.376;6.126;2023-03-04T09:14:01;102234.00;;;11.40
15626;BMP180;7912;51.376;6.126;2023-03-04T09:16:28;102240.00;;;11.60
15626;BMP180;7912;51.376;6.126;2023-03-04T09:18:55;102243.00;;;11.70
15626;BMP180;7912;51.376;6.126;2023-03-04T09:21:22;102241.00;;;11.80
15626;BMP180;7912;51.376;6.126;2023-03-04T09:23:50;102241.00;;;11.90
15626;BMP180;7912;51.376;6.126;2023-03-04T09:26:27;102229.00;;;12.00
15626;BMP180;7912;51.376;6.126;2023-03-04T09:28:59;102241.00;;;12.00
15626;BMP180;7912;51.376;6.126;2023-03-04T09:31:28;102237.00;;;12.00
15626;BMP180;7912;51.376;6.126;2023-03-04T09:33:58;102239.00;;;12.00
15626;BMP180;7912;51.376;6.126;2023-03-04T09:36:26;102226.00;;;12.00
15626;BMP180;7912;51.376;6.126;2023-03-04T09:38:53;102241.00;;;12.10
15626;BMP180;7912;51.376;6.126;2023-03-04T09:41:36;102230.00;;;12.10
15626;BMP180;7912;51.376;6.126;2023-03-04T09:44:32;102225.00;;;12.30
15626;BMP180;7912;51.376;6.126;2023-03-04T09:47:15;102224.00;;;12.40
15626;BMP180;7912;51.376;6.126;2023-03-04T09:49:54;102226.00;;;12.50
15626;BMP180;7912;51.376;6.126;2023-03-04T09:53:04;102212.00;;;12.50
15626;BMP180;7912;51.376;6.126;2023-03-04T09:55:44;102202.00;;;12.50
15626;BMP180;7912;51.376;6.126;2023-03-04T10:04:39;102200.00;;;12.80
15626;BMP180;7912;51.376;6.126;2023-03-04T10:07:26;102202.00;;;12.90
15626;BMP180;7912;51.376;6.126;2023-03-04T10:10:23;102198.00;;;12.90
15626;BMP180;7912;51.376;6.126;2023-03-04T10:12:54;102204.00;;;12.90
15626;BMP180;7912;51.376;6.126;2023-03-04T10:18:24;102212.00;;;12.90
15626;BMP180;7912;51.376;6.126;2023-03-04T10:21:13;102203.00;;;12.90
15626;BMP180;7912;51.376;6.126;2023-03-04T10:23:43;102208.00;;;13.10
15626;BMP180;7912;51.376;6.126;2023-03-04T10:26:17;102198.00;;;13.20
15626;BMP180;7912;51.376;6.126;2023-03-04T10:28:48;102194.00;;;13.20
15626;BMP180;7912;51.376;6.126;2023-03-04T10:31:33;102196.00;;;13.20
15626;BMP180;7912;51.376;6.126;2023-03-04T10:34:08;102202.00;;;13.30
15626;BMP180;7912;51.376;6.126;2023-03-04T10:44:53;102202.00;;;13.10
15626;BMP180;7912;51.376;6.126;2023-03-04T10:47:25;102197.00;;;13.00
15626;BMP180;7912;51.376;6.126;2023-03-04T10:49:59;102199.00;;;12.80
15626;BMP180;7912;51.376;6.126;2023-03-04T10:55:02;102194.00;;;12.90
15626;BMP180;7912;51.376;6.126;2023-03-04T10:57:40;102197.00;;;13.00
15626;BMP180;7912;51.376;6.126;2023-03-04T11:00:58;102199.00;;;13.00
15626;BMP180;7912;51.376;6.126;2023-03-04T11:06:21;102191.00;;;12.80
15626;BMP180;7912;51.376;6.126;2023-03-04T11:08:57;102196.00;;;12.70
15626;BMP180;7912;51.376;6.126;2023-03-04T11:11:41;102186.00;;;12.50
15626;BMP180;7912;51.376;6.126;2023-03-04T11:16:59;102183.00;;;12.20
15626;BMP180;7912;51.376;6.126;2023-03-04T11:19:40;102185.00;;;12.10
15626;BMP180;7912;51.376;6.126;2023-03-04T11:22:14;102181.00;;;12.10
15626;BMP180;7912;51.376;6.126;2023-03-04T11:24:42;102175.00;;;12.20
15626;BMP180;7912;51.376;6.126;2023-03-04T11:27:53;102176.00;;;12.40
15626;BMP180;7912;51.376;6.126;2023-03-04T11:30:56;102164.00;;;12.70
15626;BMP180;7912;51.376;6.126;2023-03-04T11:33:52;102162.00;;;12.90
15626;BMP180;7912;51.376;6.126;2023-03-04T11:39:04;102154.00;;;12.90
15626;BMP180;7912;51.376;6.126;2023-03-04T11:41:49;102147.00;;;12.90
15626;BMP180;7912;51.376;6.126;2023-03-04T11:44:18;102144.00;;;12.90
15626;BMP180;7912;51.376;6.126;2023-03-04T11:47:24;102152.00;;;12.90
15626;BMP180;7912;51.376;6.126;2023-03-04T11:53:39;102144.00;;;13.30
15626;BMP180;7912;51.376;6.126;2023-03-04T11:56:30;102136.00;;;13.70
15626;BMP180;7912;51.376;6.126;2023-03-04T11:59:39;102135.00;;;14.00
15626;BMP180;7912;51.376;6.126;2023-03-04T12:02:17;102119.00;;;14.30
15626;BMP180;7912;51.376;6.126;2023-03-04T12:10:54;102102.00;;;15.20
15626;BMP180;7912;51.376;6.126;2023-03-04T12:16:35;102095.00;;;15.00
15626;BMP180;7912;51.376;6.126;2023-03-04T12:28:22;102078.00;;;14.50
15626;BMP180;7912;51.376;6.126;2023-03-04T12:31:13;102081.00;;;14.40
15626;BMP180;7912;51.376;6.126;2023-03-04T12:40:34;102076.00;;;13.90
15626;BMP180;7912;51.376;6.126;2023-03-04T12:43:24;102078.00;;;13.70
15626;BMP180;7912;51.376;6.126;2023-03-04T12:54:56;102067.00;;;13.40
15626;BMP180;7912;51.376;6.126;2023-03-04T12:57:27;102063.00;;;13.20
15626;BMP180;7912;51.376;6.126;2023-03-04T13:03:13;102062.00;;;13.20
15626;BMP180;7912;51.376;6.126;2023-03-04T13:12:18;102040.00;;;13.50
15626;BMP180;7912;51.376;6.126;2023-03-04T13:20:23;102041.00;;;13.40
15626;BMP180;7912;51.376;6.126;2023-03-04T13:23:29;102042.00;;;13.30
15626;BMP180;7912;51.376;6.126;2023-03-04T13:26:28;102040.00;;;13.10
15626;BMP180;7912;51.376;6.126;2023-03-04T13:32:01;102027.00;;;13.10
15626;BMP180;7912;51.376;6.126;2023-03-04T13:34:47;102029.00;;;13.20
15626;BMP180;7912;51.376;6.126;2023-03-04T13:37:35;102025.00;;;13.40
15626;BMP180;7912;51.376;6.126;2023-03-04T13:40:22;102016.00;;;13.60
15626;BMP180;7912;51.376;6.126;2023-03-04T13:43:25;102011.00;;;13.80
15626;BMP180;7912;51.376;6.126;2023-03-04T13:45:53;102006.00;;;14.00
15626;BMP180;7912;51.376;6.126;2023-03-04T13:48:30;101995.00;;;14.20
15626;BMP180;7912;51.376;6.126;2023-03-04T13:50:59;102003.00;;;14.30
15626;BMP180;7912;51.376;6.126;2023-03-04T13:53:40;102000.00;;;14.30
15626;BMP180;7912;51.376;6.126;2023-03-04T13:56:19;102000.00;;;14.30
15626;BMP180;7912;51.376;6.126;2023-03-04T13:58:52;102006.00;;;14.10
15626;BMP180;7912;51.376;6.126;2023-03-04T14:06:58;102006.00;;;13.60
15626;BMP180;7912;51.376;6.126;2023-03-04T14:09:33;102008.00;;;13.50
15626;BMP180;7912;51.376;6.126;2023-03-04T14:12:13;102004.00;;;13.40
15626;BMP180;7912;51.376;6.126;2023-03-04T14:14:51;102001.00;;;13.40
15626;BMP180;7912;51.376;6.126;2023-03-04T14:17:35;102000.00;;;13.50
15626;BMP180;7912;51.376;6.126;2023-03-04T14:22:56;101992.00;;;13.60
15626;BMP180;7912;51.376;6.126;2023-03-04T14:25:26;101991.00;;;13.70
15626;BMP180;7912;51.376;6.126;2023-03-04T14:28:15;101988.00;;;13.70
15626;BMP180;7912;51.376;6.126;2023-03-04T14:30:51;101985.00;;;13.70
15626;BMP180;7912;51.376;6.126;2023-03-04T14:33:30;101973.00;;;13.70
15626;BMP180;7912;51.376;6.126;2023-03-04T14:36:01;101986.00;;;13.70
15626;BMP180;7912;51.376;6.126;2023-03-04T14:38:36;101976.00;;;13.70
15626;BMP180;7912;51.376;6.126;2023-03-04T14:41:11;101976.00;;;13.60
15626;BMP180;7912;51.376;6.126;2023-03-04T14:43:52;101976.00;;;13.60
15626;BMP180;7912;51.376;6.126;2023-03-04T14:46:29;101971.00;;;13.60
15626;BMP180;7912;51.376;6.126;2023-03-04T14:48:58;101970.00;;;13.60
15626;BMP180;7912;51.376;6.126;2023-03-04T14:51:41;101952.00;;;13.60
15626;BMP180;7912;51.376;6.126;2023-03-04T14:54:34;101955.00;;;13.50
15626;BMP180;7912;51.376;6.126;2023-03-04T14:57:22;101963.00;;;13.60
15626;BMP180;7912;51.376;6.126;2023-03-04T14:59:52;101963.00;;;13.50
15626;BMP180;7912;51.376;6.126;2023-03-04T15:02:34;101946.00;;;13.50
15626;BMP180;7912;51.376;6.126;2023-03-04T15:05:27;101951.00;;;13.40
15626;BMP180;7912;51.376;6.126;2023-03-04T15:08:16;101949.00;;;13.30
15626;BMP180;7912;51.376;6.126;2023-03-04T15:11:04;101945.00;;;13.20
15626;BMP180;7912;51.376;6.126;2023-03-04T15:13:45;101949.00;;;13.10
15626;BMP180;7912;51.376;6.126;2023-03-04T15:16:17;101945.00;;;13.10
15626;BMP180;7912;51.376;6.126;2023-03-04T15:19:18;101949.00;;;13.00
15626;BMP180;7912;51.376;6.126;2023-03-04T15:21:49;101950.00;;;13.00
15626;BMP180;7912;51.376;6.126;2023-03-04T15:24:16;101943.00;;;12.90
15626;BMP180;7912;51.376;6.126;2023-03-04T15:26:44;101938.00;;;12.80
15626;BMP180;7912;51.376;6.126;2023-03-04T15:29:19;101947.00;;;12.80
15626;BMP180;7912;51.376;6.126;2023-03-04T15:31:47;101935.00;;;12.80
15626;BMP180;7912;51.376;6.126;2023-03-04T15:34:18;101935.00;;;12.90
15626;BMP180;7912;51.376;6.126;2023-03-04T15:36:49;101929.00;;;13.00
15626;BMP180;7912;51.376;6.126;2023-03-04T15:39:18;101926.00;;;13.10
15626;BMP180;7912;51.376;6.126;2023-03-04T15:41:47;101927.00;;;13.10
15626;BMP180;7912;51.376;6.126;2023-03-04T15:44:16;101928.00;;;13.10
15626;BMP180;7912;51.376;6.126;2023-03-04T15:46:43;101924.00;;;13.10
15626;BMP180;7912;51.376;6.126;2023-03-04T15:49:11;101928.00;;;13.20
15626;BMP180;7912;51.376;6.126;2023-03-04T15:51:39;101928.00;;;13.20
15626;BMP180;7912;51.376;6.126;2023-03-04T15:54:11;101929.00;;;13.30
15626;BMP180;7912;51.376;6.126;2023-03-04T15:56:40;101922.00;;;13.20
15626;BMP180;7912;51.376;6.126;2023-03-04T15:59:13;101932.00;;;13.20
15626;BMP180;7912;51.376;6.126;2023-03-04T16:01:41;101930.00;;;13.10
15626;BMP180;7912;51.376;6.126;2023-03-04T16:04:14;101935.00;;;13.00
15626;BMP180;7912;51.376;6.126;2023-03-04T16:06:45;101939.00;;;12.90
15626;BMP180;7912;51.376;6.126;2023-03-04T16:09:16;101936.00;;;12.80
15626;BMP180;7912;51.376;6.126;2023-03-04T16:11:45;101933.00;;;12.70